Llanes en Asturias

latitud = 43° 25' 13''N | longitud = 004° 44' 53''W
10 metros sobre el nivel del mar | datos mensuales

Fecha, hora, temperatura, viento dirección y velocidad, humedad y presión.

  • 14-10-2018 19:00:00 | 14.60°C | Oeste |14.00 km/h | 79.00% | 1009.20 hPa
  • 14-10-2018 18:00:00 | 15.90°C | Oeste |13.00 km/h | 67.00% | 1008.20 hPa
  • 14-10-2018 17:00:00 | 16.20°C | Oeste |11.00 km/h | 63.00% | 1008.20 hPa
  • 14-10-2018 16:00:00 | 16.20°C | Oeste |11.00 km/h | 64.00% | 1008.30 hPa
  • 14-10-2018 15:00:00 | 15.60°C | Oeste |11.00 km/h | 67.00% | 1008.40 hPa
  • 14-10-2018 14:00:00 | 15.10°C | Oeste |12.00 km/h | 71.00% | 1008.40 hPa
  • 14-10-2018 13:00:00 | 14.50°C | Oeste |15.00 km/h | 74.00% | 1008.00 hPa
  • 14-10-2018 12:00:00 | 13.90°C | Oeste |15.00 km/h | 81.00% | 1007.50 hPa
  • 14-10-2018 11:00:00 | 13.00°C | Oeste |15.00 km/h | 86.00% | 1007.30 hPa
  • 14-10-2018 10:00:00 | 12.60°C | Oeste |14.00 km/h | 87.00% | 1007.00 hPa
  • 14-10-2018 09:00:00 | 12.80°C | Oeste |22.00 km/h | 87.00% | 1005.90 hPa
  • 14-10-2018 08:00:00 | 14.00°C | Noroeste |21.00 km/h | 88.00% | 1004.00 hPa
  • 14-10-2018 07:00:00 | 14.50°C | Noroeste |15.00 km/h | 87.00% | 1003.00 hPa
  • 14-10-2018 06:00:00 | 15.00°C | Oeste |4.00 km/h | 86.00% | 1001.80 hPa
  • 14-10-2018 05:00:00 | 14.90°C | Oeste |6.00 km/h | 87.00% | 1002.20 hPa
  • 14-10-2018 04:00:00 | 15.00°C | Oeste |8.00 km/h | 86.00% | 1003.40 hPa
  • 14-10-2018 03:00:00 | 15.60°C | Oeste |11.00 km/h | 86.00% | 1004.20 hPa
  • 14-10-2018 02:00:00 | 16.90°C | Noroeste |20.00 km/h | 83.00% | 1004.30 hPa
  • 14-10-2018 01:00:00 | 17.90°C | Oeste |22.00 km/h | 81.00% | 1004.80 hPa
  • 14-10-2018 00:00:00 | 18.70°C | Oeste |23.00 km/h | 77.00% | 1004.70 hPa
  • 13-10-2018 23:00:00 | 19.60°C | Oeste |21.00 km/h | 70.00% | 1004.30 hPa
  • 13-10-2018 22:00:00 | 19.90°C | Noroeste |11.00 km/h | 66.00% | 1003.30 hPa
  • 13-10-2018 21:00:00 | 20.70°C | Sur |5.00 km/h | 65.00% | 1004.70 hPa
  • 13-10-2018 20:00:00 | 20.70°C | Sur |4.00 km/h | 65.00% | 1006.40 hPa